EGTC weather

Cranfield Airport
Cranfield, England, United Kingdom

Public forecast

Using degrees Celsius for public forecast. Weather courtesy of forecast.io.

METAR (pilot weather report)

Report is more than 6 hours old.

Retrieved 2019/04/19 16:20 UTC (12 hours ago):

EGTC 191620Z 04009KT CAVOK 22/06 Q1028

TAF (pilot weather forecast)

Forecast is more than 12 hours old.

Closest forecast is London Luton Airport, 15.0 nm (27.8 km) SE. Retrieved 2019/04/19 00:00 UTC (1 day ago):

TAF EGGW 192255Z 2000/2024 03007KT CAVOK TEMPO 2000/2003 8000 BECMG 2003/2006 8000 PROB30 2003/2007 4000 HZ BECMG 2006/2009 CAVOK TEMPO 2023/2024 8000